createdAt,value
2023-02-08T00:00:44.812Z,6.59
2023-02-08T00:03:12.169Z,6.60
2023-02-08T00:05:39.368Z,6.59
2023-02-08T00:08:06.390Z,6.56
2023-02-08T00:10:33.410Z,6.52
2023-02-08T00:13:00.507Z,6.47
2023-02-08T00:15:27.562Z,6.41
2023-02-08T00:17:54.664Z,6.36
2023-02-08T00:20:21.640Z,6.33
2023-02-08T00:22:51.987Z,6.32
2023-02-08T00:25:19.637Z,6.31
2023-02-08T00:27:46.592Z,6.36
2023-02-08T00:30:13.620Z,6.41
2023-02-08T00:32:40.719Z,6.42
2023-02-08T00:35:08.208Z,6.39
2023-02-08T00:37:35.128Z,6.41
2023-02-08T00:40:02.889Z,6.40
2023-02-08T00:42:30.519Z,6.35
2023-02-08T00:44:57.863Z,6.28
2023-02-08T00:47:25.418Z,6.22
2023-02-08T00:49:52.544Z,6.17
2023-02-08T00:52:19.839Z,6.15
2023-02-08T00:54:47.348Z,6.13
2023-02-08T00:57:14.523Z,6.13
2023-02-08T00:59:41.757Z,6.13
2023-02-08T01:02:09.544Z,6.10
2023-02-08T01:04:36.642Z,6.08
2023-02-08T01:07:03.675Z,6.05
2023-02-08T01:09:31.197Z,6.04
2023-02-08T01:11:58.116Z,6.03
2023-02-08T01:14:25.501Z,6.00
2023-02-08T01:16:53.405Z,6.01
2023-02-08T01:19:20.630Z,6.01
2023-02-08T01:21:49.620Z,5.99
2023-02-08T01:24:16.926Z,5.96
2023-02-08T01:26:44.158Z,5.92
2023-02-08T01:29:11.349Z,5.88
2023-02-08T01:31:39.382Z,5.89
2023-02-08T01:34:07.111Z,5.92
2023-02-08T01:36:34.335Z,5.95
2023-02-08T01:39:01.481Z,5.95
2023-02-08T01:41:30.088Z,5.94
2023-02-08T01:43:57.619Z,5.93
2023-02-08T01:46:24.939Z,5.84
2023-02-08T01:48:52.444Z,5.78
2023-02-08T01:51:22.467Z,5.76
2023-02-08T01:53:50.607Z,5.71
2023-02-08T01:56:21.272Z,5.68
2023-02-08T01:58:52.559Z,5.67
2023-02-08T02:01:19.774Z,5.70
2023-02-08T02:03:46.974Z,5.74
2023-02-08T02:06:16.549Z,5.74
2023-02-08T02:08:48.024Z,5.73
2023-02-08T02:11:15.189Z,5.72
2023-02-08T02:13:42.292Z,5.74
2023-02-08T02:16:09.127Z,5.77
2023-02-08T02:18:36.027Z,5.77
2023-02-08T02:21:03.258Z,5.76
2023-02-08T02:23:33.192Z,5.70
2023-02-08T02:26:03.247Z,5.67
2023-02-08T02:28:33.239Z,5.64
2023-02-08T02:31:03.412Z,5.62
2023-02-08T02:33:33.601Z,5.57
2023-02-08T02:36:03.669Z,5.53
2023-02-08T02:38:38.321Z,5.53
2023-02-08T02:41:05.628Z,5.51
2023-02-08T02:43:43.321Z,5.52
2023-02-08T02:46:13.381Z,5.54
2023-02-08T02:48:43.329Z,5.54
2023-02-08T02:51:13.452Z,5.54
2023-02-08T02:53:43.530Z,5.52
2023-02-08T02:56:13.559Z,5.51
2023-02-08T02:58:41.050Z,5.51
2023-02-08T03:01:08.081Z,5.50
2023-02-08T03:03:35.252Z,5.48
2023-02-08T03:06:05.535Z,5.46
2023-02-08T03:08:35.445Z,5.39
2023-02-08T03:11:06.157Z,5.36
2023-02-08T03:13:33.532Z,5.37
2023-02-08T03:16:02.461Z,5.40
2023-02-08T03:18:32.400Z,5.40
2023-02-08T03:21:02.731Z,5.36
2023-02-08T03:23:32.140Z,5.37
2023-02-08T03:26:00.373Z,5.30
2023-02-08T03:28:30.924Z,5.28
2023-02-08T03:31:03.869Z,5.25
2023-02-08T03:33:33.832Z,5.26
2023-02-08T03:36:03.834Z,5.27
2023-02-08T03:38:34.183Z,5.30
2023-02-08T03:41:02.796Z,5.31
2023-02-08T03:43:34.236Z,5.31
2023-02-08T03:46:04.257Z,5.24
2023-02-08T03:48:31.784Z,5.20
2023-02-08T03:50:59.118Z,5.18
2023-02-08T03:53:27.055Z,5.12
2023-02-08T03:55:58.562Z,5.08
2023-02-08T03:58:28.324Z,5.08
2023-02-08T04:00:58.478Z,5.09
2023-02-08T04:03:27.678Z,5.13
2023-02-08T04:05:55.031Z,5.15
2023-02-08T04:08:22.249Z,5.12
2023-02-08T04:10:49.193Z,5.06
2023-02-08T04:13:16.191Z,5.02
2023-02-08T04:15:44.550Z,4.99
2023-02-08T04:18:11.763Z,4.99
2023-02-08T04:20:38.979Z,4.95
2023-02-08T04:23:06.089Z,4.87
2023-02-08T04:25:33.171Z,4.83
2023-02-08T04:28:00.186Z,4.80
2023-02-08T04:30:27.161Z,4.78
2023-02-08T04:32:54.342Z,4.78
2023-02-08T04:35:21.295Z,4.79
2023-02-08T04:37:48.559Z,4.79
2023-02-08T04:40:15.536Z,4.78
2023-02-08T04:42:42.410Z,4.82
2023-02-08T04:45:10.162Z,4.80
2023-02-08T04:47:37.083Z,4.77
2023-02-08T04:50:04.381Z,4.74
2023-02-08T04:52:31.376Z,4.72
2023-02-08T04:54:58.264Z,4.74
2023-02-08T04:57:25.199Z,4.74
2023-02-08T04:59:51.998Z,4.69
2023-02-08T05:02:18.892Z,4.64
2023-02-08T05:04:45.756Z,4.61
2023-02-08T05:07:12.720Z,4.64
2023-02-08T05:09:39.584Z,4.62
2023-02-08T05:12:06.572Z,4.59
2023-02-08T05:14:33.515Z,4.61
2023-02-08T05:17:00.396Z,4.61
2023-02-08T05:19:27.284Z,4.62
2023-02-08T05:21:54.366Z,4.60
2023-02-08T05:24:21.267Z,4.55
2023-02-08T05:26:48.063Z,4.56
2023-02-08T05:29:15.695Z,4.53
2023-02-08T05:31:42.783Z,4.53
2023-02-08T05:34:09.811Z,4.53
2023-02-08T05:36:36.720Z,4.49
2023-02-08T05:39:03.723Z,4.47
2023-02-08T05:41:30.624Z,4.43
2023-02-08T05:43:57.506Z,4.41
2023-02-08T05:46:24.513Z,4.37
2023-02-08T05:48:51.672Z,4.34
2023-02-08T05:51:18.524Z,4.35
2023-02-08T05:53:45.668Z,4.33
2023-02-08T05:56:12.518Z,4.27
2023-02-08T05:58:39.605Z,4.20
2023-02-08T06:01:10.152Z,4.13
2023-02-08T06:03:37.427Z,4.09
2023-02-08T06:06:04.406Z,4.06
2023-02-08T06:08:31.422Z,4.00
2023-02-08T06:10:58.389Z,4.00
2023-02-08T06:13:25.273Z,3.98
2023-02-08T06:15:52.229Z,3.97
2023-02-08T06:18:19.056Z,3.96
2023-02-08T06:20:45.992Z,3.98
2023-02-08T06:23:12.919Z,4.02
2023-02-08T06:25:39.723Z,4.03
2023-02-08T06:28:07.148Z,4.03
2023-02-08T06:30:34.609Z,3.98
2023-02-08T06:33:01.530Z,3.94
2023-02-08T06:35:28.507Z,3.97
2023-02-08T06:37:55.410Z,3.94
2023-02-08T06:40:22.330Z,3.98
2023-02-08T06:42:49.403Z,4.01
2023-02-08T06:45:16.440Z,4.03
2023-02-08T06:47:43.447Z,4.04
2023-02-08T06:50:10.803Z,4.08
2023-02-08T06:52:37.853Z,4.07
2023-02-08T06:55:05.205Z,4.04
2023-02-08T06:57:32.635Z,4.03
2023-02-08T06:59:59.827Z,4.03
2023-02-08T07:02:26.851Z,4.03
2023-02-08T07:04:53.759Z,4.01
2023-02-08T07:07:20.712Z,3.99
2023-02-08T07:09:47.755Z,3.97
2023-02-08T07:12:14.650Z,3.93
2023-02-08T07:14:42.384Z,3.91
2023-02-08T07:17:09.493Z,3.90
2023-02-08T07:19:36.565Z,3.90
2023-02-08T07:22:08.483Z,3.89
2023-02-08T07:24:37.260Z,3.89
2023-02-08T07:27:05.093Z,3.93
2023-02-08T07:29:32.903Z,3.91
2023-02-08T07:32:00.573Z,3.91
2023-02-08T07:34:29.372Z,3.92
2023-02-08T07:36:57.604Z,3.92
2023-02-08T07:39:25.039Z,3.91
2023-02-08T07:41:52.125Z,3.96
2023-02-08T07:44:19.226Z,3.96
2023-02-08T07:46:46.154Z,3.95
2023-02-08T07:49:13.149Z,3.98
2023-02-08T07:51:40.055Z,4.00
2023-02-08T07:54:07.069Z,3.95
2023-02-08T07:56:34.083Z,3.95
2023-02-08T07:59:01.153Z,3.90
2023-02-08T08:01:28.145Z,3.90
2023-02-08T08:03:55.317Z,3.88
2023-02-08T08:06:22.996Z,3.85
2023-02-08T08:08:50.215Z,3.87
2023-02-08T08:11:18.481Z,3.91
2023-02-08T08:13:45.616Z,3.95
2023-02-08T08:16:13.228Z,4.01
2023-02-08T08:18:40.211Z,4.09
2023-02-08T08:21:07.778Z,4.12
2023-02-08T08:23:36.697Z,4.15
2023-02-08T08:26:06.906Z,4.15
2023-02-08T08:28:34.263Z,4.15
2023-02-08T08:31:01.574Z,4.19
2023-02-08T08:33:28.619Z,4.28
2023-02-08T08:35:55.904Z,4.38
2023-02-08T08:38:23.443Z,4.41
2023-02-08T08:40:50.868Z,4.42
2023-02-08T08:43:18.087Z,4.56
2023-02-08T08:45:45.396Z,4.74
2023-02-08T08:48:13.430Z,4.77
2023-02-08T08:50:41.425Z,4.67
2023-02-08T08:53:08.939Z,4.62
2023-02-08T08:55:36.217Z,4.57
2023-02-08T08:58:03.440Z,4.56
2023-02-08T09:00:30.684Z,4.54
2023-02-08T09:02:58.271Z,4.54
2023-02-08T09:05:25.571Z,4.54
2023-02-08T09:07:52.882Z,4.55
2023-02-08T09:10:20.215Z,4.61
2023-02-08T09:12:47.663Z,4.70
2023-02-08T09:15:14.999Z,4.76
2023-02-08T09:17:42.243Z,4.82
2023-02-08T09:20:09.653Z,4.91
2023-02-08T09:22:36.754Z,5.01
2023-02-08T09:25:04.768Z,5.06
2023-02-08T09:27:31.769Z,5.17
2023-02-08T09:29:58.962Z,5.20
2023-02-08T09:32:25.985Z,5.26
2023-02-08T09:34:52.985Z,5.32
2023-02-08T09:37:20.056Z,5.39
2023-02-08T09:39:47.143Z,5.46
2023-02-08T09:42:14.608Z,5.52
2023-02-08T09:44:42.036Z,5.59
2023-02-08T09:47:12.217Z,5.66
2023-02-08T09:49:44.026Z,5.71
2023-02-08T09:52:14.087Z,5.75
2023-02-08T09:54:44.034Z,5.85
2023-02-08T09:57:14.142Z,5.90
2023-02-08T09:59:47.493Z,5.95
2023-02-08T10:02:20.003Z,6.02
2023-02-08T10:04:47.506Z,6.04
2023-02-08T10:07:14.612Z,6.07
2023-02-08T10:09:41.653Z,6.11
2023-02-08T10:12:11.737Z,6.18
2023-02-08T10:14:40.299Z,6.23
2023-02-08T10:17:11.654Z,6.26
2023-02-08T10:19:48.216Z,6.30
2023-02-08T10:22:18.296Z,6.28
2023-02-08T10:24:48.353Z,6.31
2023-02-08T10:27:17.518Z,6.34
2023-02-08T10:29:45.873Z,6.37
2023-02-08T10:32:16.274Z,6.41
2023-02-08T10:34:43.889Z,6.47
2023-02-08T10:37:17.349Z,6.49
2023-02-08T10:39:45.256Z,6.52
2023-02-08T10:42:15.579Z,6.56
2023-02-08T10:44:47.529Z,6.58
2023-02-08T10:47:18.747Z,6.63
2023-02-08T10:49:53.455Z,6.64
2023-02-08T10:52:20.561Z,6.67
2023-02-08T10:54:47.611Z,6.70
2023-02-08T10:57:18.722Z,6.73
2023-02-08T10:59:50.205Z,6.76
2023-02-08T11:02:20.340Z,6.81
2023-02-08T11:04:50.392Z,6.83
2023-02-08T11:07:21.783Z,6.86
2023-02-08T11:09:48.868Z,6.88
2023-02-08T11:12:19.184Z,6.95
2023-02-08T11:14:49.237Z,7.00
2023-02-08T11:17:19.484Z,7.05
2023-02-08T11:19:46.725Z,7.06
2023-02-08T11:22:16.509Z,7.09
2023-02-08T11:24:50.772Z,7.14
2023-02-08T11:27:19.510Z,7.17
2023-02-08T11:29:46.740Z,7.26
2023-02-08T11:32:19.119Z,7.34
2023-02-08T11:34:46.683Z,7.39
2023-02-08T11:37:17.033Z,7.45
2023-02-08T11:39:50.120Z,7.49
2023-02-08T11:42:20.849Z,7.52
2023-02-08T11:44:49.172Z,7.58
2023-02-08T11:47:20.531Z,7.64
2023-02-08T11:49:51.648Z,7.68
2023-02-08T11:52:21.814Z,7.71
2023-02-08T11:54:49.491Z,7.73
2023-02-08T11:57:19.516Z,7.78
2023-02-08T11:59:47.552Z,7.83
2023-02-08T12:02:17.793Z,7.88
2023-02-08T12:04:45.268Z,7.93
2023-02-08T12:07:15.551Z,7.95
2023-02-08T12:09:44.211Z,8.01
2023-02-08T12:12:14.942Z,8.06
2023-02-08T12:14:45.096Z,8.08
2023-02-08T12:17:15.271Z,8.11
2023-02-08T12:19:45.438Z,8.13
2023-02-08T12:22:17.189Z,8.14
2023-02-08T12:24:44.670Z,8.18
2023-02-08T12:27:17.162Z,8.23
2023-02-08T12:29:48.473Z,8.26
2023-02-08T12:32:16.104Z,8.29
2023-02-08T12:34:47.123Z,8.32
2023-02-08T12:37:17.859Z,8.40
2023-02-08T12:39:54.955Z,8.43
2023-02-08T12:42:31.373Z,8.45
2023-02-08T12:45:01.565Z,8.51
2023-02-08T12:47:33.004Z,8.56
2023-02-08T12:50:01.643Z,8.61
2023-02-08T12:52:29.960Z,8.65
2023-02-08T12:54:58.618Z,8.70
2023-02-08T12:57:27.506Z,8.72
2023-02-08T12:59:56.555Z,8.78
2023-02-08T13:02:27.589Z,8.85
2023-02-08T13:04:59.920Z,8.92
2023-02-08T13:07:27.566Z,9.01
2023-02-08T13:09:57.906Z,9.12
2023-02-08T13:12:27.812Z,9.24
2023-02-08T13:15:01.893Z,9.31
2023-02-08T13:17:37.208Z,9.35
2023-02-08T13:20:07.589Z,9.42
2023-02-08T13:22:38.231Z,9.41
2023-02-08T13:25:08.852Z,9.40
2023-02-08T13:27:37.363Z,9.43
2023-02-08T13:30:06.071Z,9.43
2023-02-08T13:32:41.465Z,9.44
2023-02-08T13:35:13.084Z,9.48
2023-02-08T13:37:40.285Z,9.55
2023-02-08T13:40:17.744Z,9.59
2023-02-08T13:42:49.185Z,9.61
2023-02-08T13:45:19.278Z,9.65
2023-02-08T13:47:49.089Z,9.69
2023-02-08T13:50:19.636Z,9.68
2023-02-08T13:52:48.958Z,9.68
2023-02-08T13:55:19.329Z,9.71
2023-02-08T13:57:55.186Z,9.72
2023-02-08T14:00:23.369Z,9.74
2023-02-08T14:02:53.718Z,9.82
2023-02-08T14:05:24.051Z,9.85
2023-02-08T14:07:52.562Z,9.86
2023-02-08T14:10:24.797Z,9.88
2023-02-08T14:12:53.262Z,9.92
2023-02-08T14:15:26.532Z,9.96
2023-02-08T14:17:58.156Z,9.97
2023-02-08T14:20:29.477Z,10.00
2023-02-08T14:22:58.552Z,10.03
2023-02-08T14:25:28.284Z,10.03
2023-02-08T14:27:58.230Z,10.03
2023-02-08T14:30:27.144Z,10.02
2023-02-08T14:33:09.178Z,10.01
2023-02-08T14:35:38.213Z,10.01
2023-02-08T14:38:08.224Z,10.00
2023-02-08T14:40:49.096Z,9.99
2023-02-08T14:43:24.288Z,9.98
2023-02-08T14:45:53.185Z,9.99
2023-02-08T14:48:23.440Z,10.00
2023-02-08T14:50:53.731Z,10.04
2023-02-08T14:53:23.974Z,10.06
2023-02-08T14:55:54.659Z,10.05
2023-02-08T14:58:25.468Z,10.03
2023-02-08T15:03:22.724Z,10.00
2023-02-08T15:05:53.207Z,10.00
2023-02-08T15:08:21.993Z,10.02
2023-02-08T15:10:49.188Z,10.00
2023-02-08T15:13:19.602Z,10.00
2023-02-08T15:15:50.881Z,9.97
2023-02-08T15:18:20.709Z,9.97
2023-02-08T15:20:56.603Z,9.96
2023-02-08T15:23:24.701Z,9.96
2023-02-08T15:25:54.836Z,9.95
2023-02-08T15:28:23.651Z,9.90
2023-02-08T15:30:53.904Z,9.88
2023-02-08T15:33:21.666Z,9.85
2023-02-08T15:35:51.893Z,9.84
2023-02-08T15:38:21.669Z,9.87
2023-02-08T15:40:55.080Z,9.84
2023-02-08T15:43:22.205Z,9.82
2023-02-08T15:45:57.660Z,9.80
2023-02-08T15:48:26.053Z,9.75
2023-02-08T15:50:54.143Z,9.76
2023-02-08T15:53:22.063Z,9.74
2023-02-08T15:55:53.336Z,9.74
2023-02-08T15:58:29.096Z,9.72
2023-02-08T16:00:58.631Z,9.70
2023-02-08T16:03:27.589Z,9.68
2023-02-08T16:05:56.459Z,9.68
2023-02-08T16:08:28.104Z,9.64
2023-02-08T16:10:57.772Z,9.61
2023-02-08T16:13:26.968Z,9.58
2023-02-08T16:16:07.276Z,9.55
2023-02-08T16:18:39.918Z,9.50
2023-02-08T16:21:19.657Z,9.46
2023-02-08T16:23:50.226Z,9.43
2023-02-08T16:26:20.654Z,9.40
2023-02-08T16:28:52.481Z,9.35
2023-02-08T16:31:22.484Z,9.30
2023-02-08T16:33:57.259Z,9.30
2023-02-08T16:36:26.230Z,9.28
2023-02-08T16:38:56.789Z,9.24
2023-02-08T16:41:43.960Z,9.21
2023-02-08T16:44:17.033Z,9.19
2023-02-08T16:46:45.423Z,9.17
2023-02-08T16:49:12.788Z,9.15
2023-02-08T16:51:43.910Z,9.13
2023-02-08T16:54:14.950Z,9.15
2023-02-08T16:56:43.034Z,9.11
2023-02-08T16:59:11.343Z,9.05
2023-02-08T17:01:39.137Z,8.99
2023-02-08T17:04:06.868Z,8.95
2023-02-08T17:06:36.610Z,8.91
2023-02-08T17:09:05.595Z,8.90
2023-02-08T17:11:33.225Z,8.91
2023-02-08T17:14:00.447Z,8.88
2023-02-08T17:16:29.044Z,8.83
2023-02-08T17:18:56.616Z,8.80
2023-02-08T17:21:24.652Z,8.77
2023-02-08T17:23:52.140Z,8.73
2023-02-08T17:26:22.861Z,8.69
2023-02-08T17:28:55.657Z,8.64
2023-02-08T17:31:23.909Z,8.62
2023-02-08T17:33:51.768Z,8.61
2023-02-08T17:36:19.584Z,8.61
2023-02-08T17:38:47.358Z,8.59
2023-02-08T17:41:16.392Z,8.58
2023-02-08T17:43:44.178Z,8.58
2023-02-08T17:46:14.800Z,8.54
2023-02-08T17:48:42.559Z,8.51
2023-02-08T17:51:11.225Z,8.48
2023-02-08T17:53:41.393Z,8.47
2023-02-08T17:56:11.853Z,8.46
2023-02-08T17:58:39.496Z,8.44
2023-02-08T18:01:07.708Z,8.47
2023-02-08T18:03:35.430Z,8.46
2023-02-08T18:06:02.723Z,8.43
2023-02-08T18:08:30.102Z,8.41
2023-02-08T18:11:02.723Z,8.36
2023-02-08T18:13:30.212Z,8.32
2023-02-08T18:15:57.812Z,8.32
2023-02-08T18:18:25.276Z,8.31
2023-02-08T18:20:52.546Z,8.28
2023-02-08T18:23:20.043Z,8.28
2023-02-08T18:25:47.685Z,8.25
2023-02-08T18:28:17.093Z,8.22
2023-02-08T18:30:44.920Z,8.18
2023-02-08T18:33:14.241Z,8.15
2023-02-08T18:35:42.116Z,8.11
2023-02-08T18:38:09.458Z,8.08
2023-02-08T18:40:36.869Z,8.06
2023-02-08T18:43:04.217Z,8.04
2023-02-08T18:45:31.427Z,8.04
2023-02-08T18:47:59.341Z,8.03
2023-02-08T18:50:26.787Z,8.01
2023-02-08T18:52:54.236Z,8.00
2023-02-08T18:55:21.594Z,7.97
2023-02-08T18:57:48.911Z,7.93
2023-02-08T19:00:16.639Z,7.99
2023-02-08T19:02:45.757Z,7.97
2023-02-08T19:05:12.915Z,8.00
2023-02-08T19:07:40.636Z,7.99
2023-02-08T19:10:08.121Z,7.95
2023-02-08T19:12:36.042Z,7.93
2023-02-08T19:15:03.308Z,7.91
2023-02-08T19:17:30.537Z,7.89
2023-02-08T19:19:57.740Z,7.87
2023-02-08T19:22:24.934Z,7.88
2023-02-08T19:24:52.207Z,7.82
2023-02-08T19:27:19.350Z,7.75
2023-02-08T19:29:46.697Z,7.75
2023-02-08T19:32:14.012Z,7.75
2023-02-08T19:34:42.041Z,7.72
2023-02-08T19:37:09.157Z,7.69
2023-02-08T19:39:36.285Z,7.66
2023-02-08T19:42:03.240Z,7.58
2023-02-08T19:44:30.836Z,7.54
2023-02-08T19:46:58.705Z,7.57
2023-02-08T19:49:26.557Z,7.55
2023-02-08T19:51:53.624Z,7.53
2023-02-08T19:54:21.090Z,7.51
2023-02-08T19:56:50.672Z,7.48
2023-02-08T19:59:19.671Z,7.47
2023-02-08T20:01:47.034Z,7.44
2023-02-08T20:04:14.765Z,7.42
2023-02-08T20:06:42.302Z,7.42
2023-02-08T20:09:09.375Z,7.40
2023-02-08T20:11:45.073Z,7.39
2023-02-08T20:14:23.370Z,7.37
2023-02-08T20:16:51.099Z,7.39
2023-02-08T20:19:19.841Z,7.38
2023-02-08T20:21:47.803Z,7.36
2023-02-08T20:24:16.208Z,7.29
2023-02-08T20:26:44.804Z,7.24
2023-02-08T20:29:12.302Z,7.23
2023-02-08T20:31:41.362Z,7.21
2023-02-08T20:34:09.326Z,7.19
2023-02-08T20:36:41.043Z,7.21
2023-02-08T20:39:09.618Z,7.17
2023-02-08T20:41:38.632Z,7.17
2023-02-08T20:44:05.711Z,7.16
2023-02-08T20:46:35.057Z,7.16
2023-02-08T20:49:03.230Z,7.14
2023-02-08T20:51:30.915Z,7.13
2023-02-08T20:53:58.690Z,7.13
2023-02-08T20:56:27.191Z,7.11
2023-02-08T20:58:55.646Z,7.11
2023-02-08T21:01:25.519Z,7.09
2023-02-08T21:03:54.531Z,7.08
2023-02-08T21:06:23.276Z,7.05
2023-02-08T21:08:53.336Z,7.03
2023-02-08T21:11:21.332Z,7.00
2023-02-08T21:13:48.551Z,6.99
2023-02-08T21:16:16.944Z,6.99
2023-02-08T21:18:44.500Z,7.07
2023-02-08T21:21:12.276Z,7.09
2023-02-08T21:23:39.674Z,7.09
2023-02-08T21:26:07.912Z,7.08
2023-02-08T21:28:35.297Z,7.10
2023-02-08T21:31:04.740Z,7.11
2023-02-08T21:33:32.940Z,7.10
2023-02-08T21:36:03.612Z,7.09
2023-02-08T21:38:31.120Z,7.08
2023-02-08T21:40:58.692Z,7.06
2023-02-08T21:43:26.321Z,7.03
2023-02-08T21:45:54.140Z,7.01
2023-02-08T21:48:22.115Z,7.02
2023-02-08T21:50:52.456Z,7.01
2023-02-08T21:53:22.670Z,7.01
2023-02-08T21:55:49.773Z,7.01
2023-02-08T21:58:16.794Z,7.00
2023-02-08T22:00:44.504Z,6.98
2023-02-08T22:03:11.785Z,6.93
2023-02-08T22:05:38.925Z,6.88
2023-02-08T22:08:06.287Z,6.82
2023-02-08T22:10:33.333Z,6.84
2023-02-08T22:13:00.461Z,6.85
2023-02-08T22:15:28.748Z,6.83
2023-02-08T22:17:56.539Z,6.82
2023-02-08T22:20:23.659Z,6.80
2023-02-08T22:22:54.861Z,6.75
2023-02-08T22:25:22.518Z,6.72
2023-02-08T22:27:49.733Z,6.71
2023-02-08T22:30:17.463Z,6.67
2023-02-08T22:32:45.346Z,6.66
2023-02-08T22:35:12.994Z,6.66
2023-02-08T22:37:40.508Z,6.66
2023-02-08T22:40:08.497Z,6.68
2023-02-08T22:42:35.419Z,6.67
2023-02-08T22:45:02.421Z,6.66
2023-02-08T22:47:29.390Z,6.66
2023-02-08T22:49:57.745Z,6.66
2023-02-08T22:52:26.028Z,6.64
2023-02-08T22:54:53.651Z,6.65
2023-02-08T22:57:20.925Z,6.68
2023-02-08T22:59:48.125Z,6.64
2023-02-08T23:02:17.931Z,6.64
2023-02-08T23:04:45.016Z,6.62
2023-02-08T23:07:12.107Z,6.63
2023-02-08T23:09:39.003Z,6.62
2023-02-08T23:12:06.220Z,6.56
2023-02-08T23:14:34.391Z,6.49
2023-02-08T23:17:01.560Z,6.48
2023-02-08T23:19:29.048Z,6.45
2023-02-08T23:21:59.664Z,6.45
2023-02-08T23:24:26.861Z,6.44
2023-02-08T23:26:54.040Z,6.44
2023-02-08T23:29:21.110Z,6.40
2023-02-08T23:31:48.200Z,6.38
2023-02-08T23:34:15.263Z,6.38
2023-02-08T23:36:42.326Z,6.33
2023-02-08T23:39:12.284Z,6.32
2023-02-08T23:41:39.198Z,6.36
2023-02-08T23:44:06.211Z,6.38
2023-02-08T23:46:33.116Z,6.37
2023-02-08T23:48:59.981Z,6.37
2023-02-08T23:51:27.185Z,6.36
2023-02-08T23:53:54.475Z,6.35
2023-02-08T23:56:24.363Z,6.33
2023-02-08T23:58:52.959Z,6.31
